createdAt,value
2017-09-08T00:00:22.609Z,16.69
2017-09-08T00:00:48.721Z,16.75
2017-09-08T00:01:14.846Z,16.71
2017-09-08T00:01:40.948Z,16.69
2017-09-08T00:02:07.055Z,16.76
2017-09-08T00:02:33.169Z,16.71
2017-09-08T00:02:59.278Z,16.68
2017-09-08T00:03:25.378Z,16.58
2017-09-08T00:03:51.505Z,16.64
2017-09-08T00:04:17.612Z,16.6
2017-09-08T00:04:43.736Z,16.61
2017-09-08T00:05:09.849Z,16.57
2017-09-08T00:05:35.959Z,16.6
2017-09-08T00:06:02.066Z,16.61
2017-09-08T00:06:28.180Z,16.54
2017-09-08T00:06:54.282Z,16.54
2017-09-08T00:07:20.391Z,16.61
2017-09-08T00:07:46.501Z,16.66
2017-09-08T00:08:12.605Z,16.71
2017-09-08T00:08:38.711Z,16.68
2017-09-08T00:09:04.821Z,16.66
2017-09-08T00:09:30.933Z,16.64
2017-09-08T00:09:57.039Z,16.69
2017-09-08T00:10:23.144Z,16.6
2017-09-08T00:10:49.256Z,16.65
2017-09-08T00:11:15.368Z,16.71
2017-09-08T00:11:41.471Z,16.68
2017-09-08T00:12:07.585Z,16.68
2017-09-08T00:12:33.692Z,16.66
2017-09-08T00:12:59.800Z,16.6
2017-09-08T00:13:25.912Z,16.66
2017-09-08T00:13:52.018Z,16.71
2017-09-08T00:14:18.131Z,16.72
2017-09-08T00:14:44.242Z,16.69
2017-09-08T00:15:10.346Z,16.65
2017-09-08T00:15:36.461Z,16.72
2017-09-08T00:16:02.565Z,16.72
2017-09-08T00:16:28.678Z,16.65
2017-09-08T00:16:54.781Z,16.71
2017-09-08T00:17:20.888Z,16.64
2017-09-08T00:17:47.000Z,16.66
2017-09-08T00:18:13.110Z,16.61
2017-09-08T00:18:39.213Z,16.69
2017-09-08T00:19:05.328Z,16.66
2017-09-08T00:19:31.441Z,16.65
2017-09-08T00:19:57.557Z,16.68
2017-09-08T00:20:29.938Z,16.65
2017-09-08T00:20:56.044Z,16.68
2017-09-08T00:21:22.156Z,16.74
2017-09-08T00:21:48.265Z,16.75
2017-09-08T00:22:14.369Z,16.78
2017-09-08T00:22:40.481Z,16.74
2017-09-08T00:23:06.589Z,16.74
2017-09-08T00:23:32.698Z,16.68
2017-09-08T00:23:58.808Z,16.74
2017-09-08T00:24:24.920Z,16.69
2017-09-08T00:24:51.027Z,16.71
2017-09-08T00:25:17.137Z,16.76
2017-09-08T00:25:43.252Z,16.69
2017-09-08T00:26:09.358Z,16.74
2017-09-08T00:26:35.466Z,16.76
2017-09-08T00:27:01.579Z,16.76
2017-09-08T00:27:27.709Z,16.74
2017-09-08T00:27:53.816Z,16.76
2017-09-08T00:28:19.925Z,16.66
2017-09-08T00:28:46.037Z,16.72
2017-09-08T00:29:12.137Z,16.64
2017-09-08T00:29:38.250Z,16.68
2017-09-08T00:30:04.361Z,16.61
2017-09-08T00:30:30.470Z,16.64
2017-09-08T00:30:56.579Z,16.69
2017-09-08T00:31:22.696Z,16.71
2017-09-08T00:31:48.802Z,16.71
2017-09-08T00:32:14.908Z,16.75
2017-09-08T00:32:41.025Z,16.68
2017-09-08T00:33:07.133Z,16.71
2017-09-08T00:33:33.244Z,16.71
2017-09-08T00:33:59.371Z,16.72
2017-09-08T00:34:25.500Z,16.71
2017-09-08T00:34:51.607Z,16.71
2017-09-08T00:35:17.718Z,16.66
2017-09-08T00:35:43.828Z,16.64
2017-09-08T00:36:09.932Z,16.66
2017-09-08T00:36:36.083Z,16.68
2017-09-08T00:37:02.153Z,16.65
2017-09-08T00:37:28.263Z,16.68
2017-09-08T00:37:54.388Z,16.69
2017-09-08T00:38:20.521Z,16.64
2017-09-08T00:38:46.628Z,16.69
2017-09-08T00:39:12.735Z,16.71
2017-09-08T00:39:38.852Z,16.66
2017-09-08T00:40:04.959Z,16.66
2017-09-08T00:40:31.070Z,16.71
2017-09-08T00:40:57.179Z,16.6
2017-09-08T00:41:23.291Z,16.69
2017-09-08T00:41:49.415Z,16.71
2017-09-08T00:42:15.543Z,16.66
2017-09-08T00:42:41.653Z,16.68
2017-09-08T00:43:07.754Z,16.69
2017-09-08T00:43:33.868Z,16.56
2017-09-08T00:43:59.976Z,16.6
2017-09-08T00:44:26.086Z,16.69
2017-09-08T00:44:52.195Z,16.57
2017-09-08T00:45:18.309Z,16.71
2017-09-08T00:45:44.418Z,16.64
2017-09-08T00:46:10.527Z,16.75
2017-09-08T00:46:36.644Z,16.69
2017-09-08T00:47:02.748Z,16.71
2017-09-08T00:47:28.860Z,16.76
2017-09-08T00:47:54.970Z,16.71
2017-09-08T00:48:21.079Z,16.57
2017-09-08T00:48:47.186Z,16.64
2017-09-08T00:49:13.297Z,16.71
2017-09-08T00:49:39.409Z,16.66
2017-09-08T00:50:05.512Z,16.69
2017-09-08T00:50:31.623Z,16.66
2017-09-08T00:50:57.733Z,16.58
2017-09-08T00:51:23.842Z,16.66
2017-09-08T00:51:49.949Z,16.64
2017-09-08T00:52:16.059Z,16.72
2017-09-08T00:52:42.167Z,16.72
2017-09-08T00:53:08.275Z,16.68
2017-09-08T00:53:34.389Z,16.61
2017-09-08T00:54:00.519Z,16.66
2017-09-08T00:54:26.624Z,16.6
2017-09-08T00:54:52.732Z,16.69
2017-09-08T00:55:44.512Z,16.58
2017-09-08T00:56:10.624Z,16.51
2017-09-08T00:56:53.477Z,16.54
2017-09-08T00:57:19.581Z,16.56
2017-09-08T00:57:45.690Z,16.46
2017-09-08T00:58:11.803Z,16.51
2017-09-08T00:58:37.909Z,16.41
2017-09-08T00:59:04.012Z,16.36
2017-09-08T00:59:30.123Z,16.43
2017-09-08T00:59:56.253Z,16.5
2017-09-08T01:00:22.359Z,16.41
2017-09-08T01:00:48.462Z,16.43
2017-09-08T01:01:14.593Z,16.43
2017-09-08T01:01:40.703Z,16.38
2017-09-08T01:02:06.811Z,16.42
2017-09-08T01:02:32.920Z,16.26
2017-09-08T01:02:59.027Z,16.32
2017-09-08T01:03:25.155Z,16.32
2017-09-08T01:03:51.258Z,16.28
2017-09-08T01:04:17.364Z,16.31
2017-09-08T01:04:43.475Z,16.28
2017-09-08T01:05:09.585Z,16.24
2017-09-08T01:05:35.709Z,16.28
2017-09-08T01:06:01.822Z,16.28
2017-09-08T01:06:27.928Z,16.12
2017-09-08T01:06:54.033Z,16.16
2017-09-08T01:07:20.145Z,16.17
2017-09-08T01:07:46.242Z,16.21
2017-09-08T01:08:12.352Z,16.2
2017-09-08T01:08:38.466Z,16.21
2017-09-08T01:09:04.567Z,16.12
2017-09-08T01:09:30.684Z,15.98
2017-09-08T01:09:56.787Z,16.02
2017-09-08T01:10:22.896Z,16.1
2017-09-08T01:10:49.001Z,16.02
2017-09-08T01:11:15.109Z,16.02
2017-09-08T01:11:41.226Z,16.02
2017-09-08T01:12:07.336Z,15.86
2017-09-08T01:12:33.438Z,15.88
2017-09-08T01:12:59.550Z,15.82
2017-09-08T01:13:25.649Z,15.75
2017-09-08T01:13:51.755Z,15.75
2017-09-08T01:14:17.867Z,15.73
2017-09-08T01:14:43.979Z,15.82
2017-09-08T01:15:10.090Z,15.73
2017-09-08T01:15:36.200Z,15.82
2017-09-08T01:16:02.310Z,15.86
2017-09-08T01:16:28.414Z,15.9
2017-09-08T01:16:54.512Z,15.76
2017-09-08T01:17:20.624Z,15.77
2017-09-08T01:17:46.729Z,15.82
2017-09-08T01:18:12.845Z,15.86
2017-09-08T01:18:38.957Z,15.92
2017-09-08T01:19:05.057Z,15.8
2017-09-08T01:19:31.169Z,15.7
2017-09-08T01:19:57.273Z,15.75
2017-09-08T01:20:23.387Z,15.75
2017-09-08T01:20:49.494Z,15.65
2017-09-08T01:21:15.600Z,15.58
2017-09-08T01:21:41.711Z,15.59
2017-09-08T01:22:07.816Z,15.65
2017-09-08T01:22:33.924Z,15.57
2017-09-08T01:23:00.027Z,15.59
2017-09-08T01:23:26.134Z,15.61
2017-09-08T01:23:52.250Z,15.59
2017-09-08T01:24:18.361Z,15.52
2017-09-08T01:24:44.465Z,15.52
2017-09-08T01:25:10.580Z,15.54
2017-09-08T01:25:36.683Z,15.54
2017-09-08T01:26:02.788Z,15.54
2017-09-08T01:26:28.913Z,15.54
2017-09-08T01:26:55.005Z,15.51
2017-09-08T01:27:21.116Z,15.4
2017-09-08T01:27:47.227Z,15.44
2017-09-08T01:28:13.360Z,15.43
2017-09-08T01:28:39.448Z,15.43
2017-09-08T01:29:05.548Z,15.42
2017-09-08T01:29:31.651Z,15.47
2017-09-08T01:29:57.764Z,15.44
2017-09-08T01:30:23.874Z,15.43
2017-09-08T01:30:49.978Z,15.42
2017-09-08T01:31:16.083Z,15.42
2017-09-08T01:31:42.196Z,15.46
2017-09-08T01:32:08.301Z,15.43
2017-09-08T01:32:34.413Z,15.44
2017-09-08T01:33:00.522Z,15.44
2017-09-08T01:33:26.625Z,15.4
2017-09-08T01:33:52.741Z,15.51
2017-09-08T01:34:18.843Z,15.44
2017-09-08T01:34:44.949Z,15.43
2017-09-08T01:35:11.062Z,15.46
2017-09-08T01:35:37.192Z,15.47
2017-09-08T01:36:03.291Z,15.47
2017-09-08T01:36:29.400Z,15.46
2017-09-08T01:36:55.511Z,15.44
2017-09-08T01:37:21.616Z,15.43
2017-09-08T01:37:47.749Z,15.49
2017-09-08T01:38:13.851Z,15.43
2017-09-08T01:38:39.963Z,15.36
2017-09-08T01:39:06.071Z,15.47
2017-09-08T01:39:32.181Z,15.4
2017-09-08T01:39:58.283Z,15.46
2017-09-08T01:40:24.398Z,15.37
2017-09-08T01:40:50.500Z,15.46
2017-09-08T01:41:16.613Z,15.43
2017-09-08T01:41:42.713Z,15.36
2017-09-08T01:42:08.818Z,15.42
2017-09-08T01:42:34.924Z,15.4
2017-09-08T01:43:01.062Z,15.46
2017-09-08T01:43:27.166Z,15.42
2017-09-08T01:43:53.275Z,15.42
2017-09-08T01:44:19.386Z,15.42
2017-09-08T01:44:45.512Z,15.36
2017-09-08T01:45:11.620Z,15.42
2017-09-08T01:45:37.728Z,15.46
2017-09-08T01:46:03.836Z,15.43
2017-09-08T01:46:29.943Z,15.42
2017-09-08T01:46:56.049Z,15.43
2017-09-08T01:47:22.153Z,15.42
2017-09-08T01:47:48.268Z,15.4
2017-09-08T01:48:14.370Z,15.36
2017-09-08T01:48:40.482Z,15.44
2017-09-08T01:49:06.596Z,15.43
2017-09-08T01:49:32.699Z,15.46
2017-09-08T01:49:58.810Z,15.37
2017-09-08T01:50:24.916Z,15.46
2017-09-08T01:50:51.031Z,15.43
2017-09-08T01:51:17.133Z,15.43
2017-09-08T01:51:43.246Z,15.4
2017-09-08T01:52:09.350Z,15.44
2017-09-08T01:52:35.463Z,15.46
2017-09-08T01:53:01.572Z,15.43
2017-09-08T01:53:27.693Z,15.47
2017-09-08T01:53:53.803Z,15.47
2017-09-08T01:54:19.915Z,15.51
2017-09-08T01:54:46.025Z,15.44
2017-09-08T01:55:12.148Z,15.55
2017-09-08T01:55:38.256Z,15.51
2017-09-08T01:56:04.368Z,15.46
2017-09-08T01:56:30.479Z,15.49
2017-09-08T01:56:56.585Z,15.49
2017-09-08T01:57:22.695Z,15.47
2017-09-08T01:57:48.798Z,15.51
2017-09-08T01:58:14.912Z,15.54
2017-09-08T01:58:41.014Z,15.52
2017-09-08T01:59:07.127Z,15.55
2017-09-08T01:59:33.230Z,15.55
2017-09-08T01:59:59.337Z,15.49
2017-09-08T02:00:25.450Z,15.55
2017-09-08T02:00:51.554Z,15.52
2017-09-08T02:01:17.664Z,15.57
2017-09-08T02:01:43.777Z,15.64
2017-09-08T02:02:09.885Z,15.64
2017-09-08T02:02:36.003Z,15.55
2017-09-08T02:03:02.131Z,15.52
2017-09-08T02:03:28.265Z,15.58
2017-09-08T02:03:54.390Z,15.62
2017-09-08T02:04:20.514Z,15.62
2017-09-08T02:04:46.639Z,15.62
2017-09-08T02:05:12.761Z,15.67
2017-09-08T02:05:38.878Z,15.67
2017-09-08T02:06:05.002Z,15.58
2017-09-08T02:06:31.129Z,15.59
2017-09-08T02:06:57.247Z,15.54
2017-09-08T02:07:23.365Z,15.57
2017-09-08T02:07:49.487Z,15.57
2017-09-08T02:08:15.609Z,15.55
2017-09-08T02:08:41.733Z,15.57
2017-09-08T02:09:07.864Z,15.65
2017-09-08T02:09:33.987Z,15.64
2017-09-08T02:10:00.114Z,15.61
2017-09-08T02:10:26.241Z,15.64
2017-09-08T02:10:52.359Z,15.57
2017-09-08T02:11:18.485Z,15.67
2017-09-08T02:11:44.598Z,15.64
2017-09-08T02:12:10.727Z,15.58
2017-09-08T02:12:36.845Z,15.64
2017-09-08T02:13:02.974Z,15.62
2017-09-08T02:13:29.091Z,15.58
2017-09-08T02:13:55.214Z,15.65
2017-09-08T02:14:21.340Z,15.65
2017-09-08T02:14:47.459Z,15.65
2017-09-08T02:15:13.583Z,15.68
2017-09-08T02:15:39.708Z,15.64
2017-09-08T02:16:05.828Z,15.65
2017-09-08T02:16:31.958Z,15.64
2017-09-08T02:16:58.077Z,15.73
2017-09-08T02:17:24.196Z,15.68
2017-09-08T02:17:50.321Z,15.77
2017-09-08T02:18:16.441Z,15.75
2017-09-08T02:18:42.566Z,15.79
2017-09-08T02:19:08.696Z,15.73
2017-09-08T02:19:34.813Z,15.75
2017-09-08T02:20:00.933Z,15.72
2017-09-08T02:20:27.061Z,15.72
2017-09-08T02:20:53.179Z,15.57
2017-09-08T02:21:19.306Z,15.55
2017-09-08T02:21:45.426Z,15.59
2017-09-08T02:22:11.551Z,15.55
2017-09-08T02:22:37.670Z,15.57
2017-09-08T02:23:03.798Z,15.58
2017-09-08T02:23:29.915Z,15.59
2017-09-08T02:23:56.043Z,15.52
2017-09-08T02:24:22.172Z,15.58
2017-09-08T02:24:48.290Z,15.49
2017-09-08T02:25:14.449Z,15.59
2017-09-08T02:25:40.535Z,15.59
2017-09-08T02:26:06.658Z,15.61
2017-09-08T02:26:32.787Z,15.67
2017-09-08T02:26:58.902Z,15.72
2017-09-08T02:27:25.023Z,15.72
2017-09-08T02:27:51.155Z,15.62
2017-09-08T02:28:17.275Z,15.7
2017-09-08T02:28:43.401Z,15.65
2017-09-08T02:29:09.525Z,15.67
2017-09-08T02:29:35.646Z,15.64
2017-09-08T02:30:01.776Z,15.61
2017-09-08T02:30:27.890Z,15.61
2017-09-08T02:30:54.019Z,15.55
2017-09-08T02:31:20.142Z,15.58
2017-09-08T02:31:46.261Z,15.55
2017-09-08T02:32:12.389Z,15.61
2017-09-08T02:32:38.506Z,15.67
2017-09-08T02:33:04.622Z,15.68
2017-09-08T02:33:30.751Z,15.62
2017-09-08T02:33:56.881Z,15.7
2017-09-08T02:34:23.008Z,15.64
2017-09-08T02:34:49.127Z,15.65
2017-09-08T02:35:15.250Z,15.62
2017-09-08T02:35:41.369Z,15.72
2017-09-08T02:36:07.498Z,15.64
2017-09-08T02:36:33.616Z,15.62
2017-09-08T02:36:59.742Z,15.58
2017-09-08T02:37:25.857Z,15.57
2017-09-08T02:37:51.983Z,15.54
2017-09-08T02:38:18.109Z,15.65
2017-09-08T02:38:44.246Z,15.64
2017-09-08T02:39:10.374Z,15.65
2017-09-08T02:39:36.495Z,15.72
2017-09-08T02:40:02.623Z,15.73
2017-09-08T02:40:28.761Z,15.68
2017-09-08T02:40:54.882Z,15.62
2017-09-08T02:41:21.013Z,15.62
2017-09-08T02:41:47.151Z,15.58
2017-09-08T02:42:13.280Z,15.52
2017-09-08T02:42:39.404Z,15.52
2017-09-08T02:43:05.526Z,15.58
2017-09-08T02:43:31.654Z,15.65
2017-09-08T02:43:57.770Z,15.65
2017-09-08T02:44:23.913Z,15.57
2017-09-08T02:44:50.040Z,15.44
2017-09-08T02:45:16.160Z,15.55
2017-09-08T02:45:42.284Z,15.59
2017-09-08T02:46:08.413Z,15.54
2017-09-08T02:46:34.532Z,15.57
2017-09-08T02:47:00.663Z,15.57
2017-09-08T02:47:26.792Z,15.59
2017-09-08T02:47:52.911Z,15.57
2017-09-08T02:48:19.028Z,15.65
2017-09-08T02:48:45.153Z,15.64
2017-09-08T02:49:11.271Z,15.75
2017-09-08T02:49:37.399Z,15.75
2017-09-08T02:50:03.524Z,15.67
2017-09-08T02:50:29.646Z,15.7
2017-09-08T02:50:55.767Z,15.67
2017-09-08T02:51:21.891Z,15.75
2017-09-08T02:51:48.010Z,15.65
2017-09-08T02:52:14.127Z,15.75
2017-09-08T02:52:40.251Z,15.7
2017-09-08T02:53:06.369Z,15.72
2017-09-08T02:53:32.500Z,15.68
2017-09-08T02:53:58.617Z,15.75
2017-09-08T02:54:24.743Z,15.72
2017-09-08T02:54:50.862Z,15.72
2017-09-08T02:55:16.983Z,15.67
2017-09-08T02:55:43.111Z,15.75
2017-09-08T02:56:09.241Z,15.73
2017-09-08T02:56:35.365Z,15.73
2017-09-08T02:57:01.489Z,15.76
2017-09-08T02:57:27.606Z,15.7
2017-09-08T02:57:53.734Z,15.67
2017-09-08T02:58:19.858Z,15.82
2017-09-08T02:58:45.977Z,15.7
2017-09-08T02:59:12.106Z,15.73
2017-09-08T02:59:38.229Z,15.75
2017-09-08T03:00:04.353Z,15.76
2017-09-08T03:00:30.471Z,15.73
2017-09-08T03:00:56.601Z,15.73
2017-09-08T03:01:22.719Z,15.72
2017-09-08T03:01:48.842Z,15.7
2017-09-08T03:02:14.969Z,15.77
2017-09-08T03:02:41.086Z,15.75
2017-09-08T03:03:07.210Z,15.72
2017-09-08T03:03:33.338Z,15.75
2017-09-08T03:03:59.457Z,15.67
2017-09-08T03:04:25.586Z,15.7
2017-09-08T03:04:51.705Z,15.68
2017-09-08T03:05:17.831Z,15.79
2017-09-08T03:05:43.949Z,15.8
2017-09-08T03:06:10.076Z,15.8
2017-09-08T03:06:36.196Z,15.79
2017-09-08T03:07:02.319Z,15.72
2017-09-08T03:07:28.448Z,15.77
2017-09-08T03:07:54.564Z,15.76
2017-09-08T03:08:20.692Z,15.84
2017-09-08T03:08:46.814Z,15.79
2017-09-08T03:09:12.934Z,15.72
2017-09-08T03:09:39.064Z,15.7
2017-09-08T03:10:05.187Z,15.67
2017-09-08T03:10:31.335Z,15.75
2017-09-08T03:10:57.457Z,15.7
2017-09-08T03:11:23.578Z,15.76
2017-09-08T03:11:49.702Z,15.82
2017-09-08T03:12:15.817Z,15.92
2017-09-08T03:12:41.946Z,15.82
2017-09-08T03:13:08.074Z,15.88
2017-09-08T03:13:34.193Z,15.8
2017-09-08T03:14:00.316Z,15.75
2017-09-08T03:14:26.441Z,15.7
2017-09-08T03:14:52.565Z,15.72
2017-09-08T03:15:18.682Z,15.79
2017-09-08T03:15:44.804Z,15.7
2017-09-08T03:16:10.928Z,15.75
2017-09-08T03:16:37.055Z,15.82
2017-09-08T03:17:03.181Z,15.76
2017-09-08T03:17:29.305Z,15.75
2017-09-08T03:17:55.430Z,15.7
2017-09-08T03:18:21.550Z,15.77
2017-09-08T03:18:47.674Z,15.79
2017-09-08T03:19:13.796Z,15.7
2017-09-08T03:19:39.915Z,15.7
2017-09-08T03:20:06.046Z,15.7
2017-09-08T03:20:32.161Z,15.68
2017-09-08T03:20:58.285Z,15.73
2017-09-08T03:21:24.417Z,15.76
2017-09-08T03:21:50.534Z,15.83
2017-09-08T03:22:16.662Z,15.9
2017-09-08T03:22:42.787Z,15.83
2017-09-08T03:23:08.907Z,15.88
2017-09-08T03:23:35.057Z,15.91
2017-09-08T03:24:01.198Z,15.9
2017-09-08T03:24:27.321Z,15.84
2017-09-08T03:24:53.445Z,15.9
2017-09-08T03:25:19.567Z,15.84
2017-09-08T03:25:45.696Z,15.9
2017-09-08T03:26:11.813Z,15.84
2017-09-08T03:26:37.943Z,15.86
2017-09-08T03:27:04.065Z,15.83
2017-09-08T03:27:30.186Z,15.95
2017-09-08T03:27:56.315Z,15.94
2017-09-08T03:28:22.451Z,15.97
2017-09-08T03:28:48.575Z,15.95
2017-09-08T03:29:14.694Z,16.01
2017-09-08T03:29:40.822Z,15.95
2017-09-08T03:30:06.941Z,15.82
2017-09-08T03:30:33.090Z,15.86
2017-09-08T03:30:59.211Z,15.86
2017-09-08T03:31:25.340Z,15.86
2017-09-08T03:31:51.456Z,15.84
2017-09-08T03:32:17.573Z,15.84
2017-09-08T03:32:43.701Z,15.83
2017-09-08T03:33:09.824Z,15.84
2017-09-08T03:33:35.948Z,15.91
2017-09-08T03:34:02.070Z,15.88
2017-09-08T03:34:28.197Z,15.88
2017-09-08T03:34:54.320Z,15.9
2017-09-08T03:35:20.445Z,15.91
2017-09-08T03:35:46.569Z,15.84
2017-09-08T03:36:12.682Z,15.86
2017-09-08T03:36:38.812Z,15.88
2017-09-08T03:37:04.927Z,15.82
2017-09-08T03:37:31.051Z,15.86
2017-09-08T03:37:57.175Z,15.86
2017-09-08T03:38:23.296Z,15.8
2017-09-08T03:38:49.419Z,15.82
2017-09-08T03:39:15.539Z,15.72
2017-09-08T03:39:41.667Z,15.72
2017-09-08T03:40:07.796Z,15.75
2017-09-08T03:40:33.922Z,15.7
2017-09-08T03:41:00.046Z,15.75
2017-09-08T03:41:26.169Z,15.82
2017-09-08T03:41:52.289Z,15.75
2017-09-08T03:42:18.416Z,15.68
2017-09-08T03:42:44.542Z,15.73
2017-09-08T03:43:10.660Z,15.76
2017-09-08T03:43:36.788Z,15.76
2017-09-08T03:44:02.907Z,15.83
2017-09-08T03:44:29.029Z,15.9
2017-09-08T03:44:55.156Z,15.73
2017-09-08T03:45:21.282Z,15.79
2017-09-08T03:45:47.404Z,15.7
2017-09-08T03:46:13.528Z,15.73
2017-09-08T03:46:39.646Z,15.73
2017-09-08T03:47:05.776Z,15.7
2017-09-08T03:47:31.891Z,15.7
2017-09-08T03:47:58.012Z,15.68
2017-09-08T03:48:24.156Z,15.73
2017-09-08T03:48:50.278Z,15.67
2017-09-08T03:49:16.403Z,15.76
2017-09-08T03:49:42.530Z,15.77
2017-09-08T03:50:08.649Z,15.79
2017-09-08T03:50:34.776Z,15.72
2017-09-08T03:51:00.894Z,15.73
2017-09-08T03:51:27.016Z,15.68
2017-09-08T03:51:53.141Z,15.67
2017-09-08T03:52:19.262Z,15.68
2017-09-08T03:52:45.384Z,15.73
2017-09-08T03:53:11.506Z,15.72
2017-09-08T03:53:37.633Z,15.83
2017-09-08T03:54:03.758Z,15.86
2017-09-08T03:54:29.885Z,15.82
2017-09-08T03:54:56.009Z,15.88
2017-09-08T03:55:22.125Z,15.82
2017-09-08T03:55:48.246Z,15.84
2017-09-08T03:56:14.366Z,15.86
2017-09-08T03:56:40.496Z,15.86
2017-09-08T03:57:06.615Z,15.84
2017-09-08T03:57:32.737Z,15.73
2017-09-08T03:57:58.864Z,15.82
2017-09-08T03:58:24.986Z,15.91
2017-09-08T03:58:51.110Z,15.86
2017-09-08T03:59:17.235Z,15.84
2017-09-08T03:59:43.350Z,15.9
2017-09-08T04:00:09.483Z,15.82
2017-09-08T04:00:35.600Z,16
2017-09-08T04:01:01.732Z,15.97
2017-09-08T04:01:27.856Z,15.98
2017-09-08T04:01:54.000Z,16
2017-09-08T04:02:20.138Z,15.98
2017-09-08T04:02:46.257Z,15.82
2017-09-08T04:03:12.379Z,15.83
2017-09-08T04:03:38.504Z,16.01
2017-09-08T04:04:04.623Z,15.98
2017-09-08T04:04:30.752Z,16
2017-09-08T04:04:56.871Z,16.05
2017-09-08T04:05:22.990Z,16.04
2017-09-08T04:05:49.113Z,16.01
2017-09-08T04:06:15.235Z,16.08
2017-09-08T04:06:41.360Z,16.09
2017-09-08T04:07:07.481Z,16.08
2017-09-08T04:07:33.607Z,16.02
2017-09-08T04:07:59.726Z,16.13
2017-09-08T04:08:25.854Z,16.02
2017-09-08T04:08:51.977Z,16.12
2017-09-08T04:09:18.100Z,16.08
2017-09-08T04:09:44.224Z,16.15
2017-09-08T04:10:10.342Z,16.13
2017-09-08T04:10:36.491Z,16.12
2017-09-08T04:11:02.608Z,16.15
2017-09-08T04:11:28.732Z,16.09
2017-09-08T04:11:54.858Z,16.1
2017-09-08T04:12:20.976Z,16.1
2017-09-08T04:12:47.107Z,16.12
2017-09-08T04:13:13.227Z,16.17
2017-09-08T04:13:39.350Z,16.1
2017-09-08T04:14:05.497Z,16.1
2017-09-08T04:14:31.636Z,16.04
2017-09-08T04:14:57.764Z,16.01
2017-09-08T04:15:23.883Z,16.09
2017-09-08T04:15:50.010Z,16.16
2017-09-08T04:16:16.137Z,16.09
2017-09-08T04:16:42.285Z,16.12
2017-09-08T04:17:08.425Z,16.12
2017-09-08T04:17:34.546Z,16.16
2017-09-08T04:18:00.674Z,16.13
2017-09-08T04:18:26.801Z,16.15
2017-09-08T04:18:52.917Z,16.09
2017-09-08T04:19:19.040Z,16.13
2017-09-08T04:19:45.166Z,16.15
2017-09-08T04:20:11.286Z,16.05
2017-09-08T04:20:37.413Z,16.13
2017-09-08T04:21:03.537Z,16.1
2017-09-08T04:21:29.665Z,16.12
2017-09-08T04:21:55.813Z,16.1
2017-09-08T04:22:21.933Z,16.13
2017-09-08T04:22:48.062Z,16.09
2017-09-08T04:23:14.182Z,16.13
2017-09-08T04:23:40.299Z,16.01
2017-09-08T04:24:06.447Z,16.02
2017-09-08T04:24:32.567Z,16.09
2017-09-08T04:24:58.693Z,16.13
2017-09-08T04:25:24.816Z,16.08
2017-09-08T04:25:50.935Z,16.1
2017-09-08T04:26:17.082Z,16.12
2017-09-08T04:26:43.203Z,16.13
2017-09-08T04:27:09.328Z,15.97
2017-09-08T04:27:35.457Z,16.13
2017-09-08T04:28:01.578Z,16.15
2017-09-08T04:28:27.704Z,16.09
2017-09-08T04:28:53.820Z,16.08
2017-09-08T04:29:19.951Z,16.13
2017-09-08T04:29:46.064Z,16.08
2017-09-08T04:30:12.195Z,16.02
2017-09-08T04:30:38.312Z,15.97
2017-09-08T04:31:04.433Z,16
2017-09-08T04:31:30.561Z,16.04
2017-09-08T04:31:56.687Z,16.1
2017-09-08T04:32:22.810Z,16.02
2017-09-08T04:32:48.927Z,16.1
2017-09-08T04:33:15.052Z,16.08
2017-09-08T04:33:41.183Z,16.15
2017-09-08T04:34:07.300Z,16.09
2017-09-08T04:34:33.418Z,16.12
2017-09-08T04:34:59.544Z,16.09
2017-09-08T04:35:25.663Z,16.02
2017-09-08T04:35:51.786Z,16.12
2017-09-08T04:36:17.912Z,16.08
2017-09-08T04:36:44.031Z,16.1
2017-09-08T04:37:10.159Z,16.09
2017-09-08T04:37:36.274Z,16.04
2017-09-08T04:38:02.403Z,16.05
2017-09-08T04:38:28.523Z,16.08
2017-09-08T04:38:54.649Z,16.01
2017-09-08T04:39:20.776Z,16.05
2017-09-08T04:39:46.895Z,15.91
2017-09-08T04:40:13.014Z,15.97
2017-09-08T04:40:39.141Z,15.94
2017-09-08T04:41:05.267Z,16.05
2017-09-08T04:41:31.385Z,16.01
2017-09-08T04:41:57.515Z,15.91
2017-09-08T04:42:23.637Z,15.94
2017-09-08T04:42:49.753Z,15.94
2017-09-08T04:43:15.881Z,16.02
2017-09-08T04:43:42.004Z,16.12
2017-09-08T04:44:08.125Z,16.15
2017-09-08T04:44:34.252Z,16.12
2017-09-08T04:45:00.373Z,16.01
2017-09-08T04:45:26.490Z,16.04
2017-09-08T04:45:52.622Z,16.02
2017-09-08T04:46:18.758Z,16.02
2017-09-08T04:46:44.905Z,15.97
2017-09-08T04:47:11.030Z,15.98
2017-09-08T04:47:37.154Z,15.98
2017-09-08T04:48:03.275Z,16
2017-09-08T04:48:29.391Z,16.02
2017-09-08T04:48:55.518Z,16
2017-09-08T04:49:21.635Z,16.04
2017-09-08T04:49:47.766Z,15.91
2017-09-08T04:50:13.882Z,16.04
2017-09-08T04:50:40.001Z,15.97
2017-09-08T04:51:06.134Z,15.98
2017-09-08T04:51:32.251Z,15.98
2017-09-08T04:51:58.374Z,15.95
2017-09-08T04:52:24.503Z,15.92
2017-09-08T04:52:50.631Z,15.88
2017-09-08T04:53:16.748Z,15.94
2017-09-08T04:53:42.876Z,15.84
2017-09-08T04:54:08.999Z,15.84
2017-09-08T04:54:35.116Z,15.77
2017-09-08T04:55:01.234Z,15.82
2017-09-08T04:55:27.361Z,15.8
2017-09-08T04:55:53.506Z,15.82
2017-09-08T04:56:19.624Z,15.86
2017-09-08T04:56:45.748Z,15.8
2017-09-08T04:57:11.872Z,15.82
2017-09-08T04:57:37.998Z,15.73
2017-09-08T04:58:04.120Z,15.77
2017-09-08T04:58:30.244Z,15.86
2017-09-08T04:58:56.365Z,15.86
2017-09-08T04:59:22.494Z,15.88
2017-09-08T04:59:48.614Z,15.8
2017-09-08T05:00:14.742Z,15.82
2017-09-08T05:00:40.862Z,15.88
2017-09-08T05:01:07.001Z,15.9
2017-09-08T05:01:33.128Z,15.9
2017-09-08T05:01:59.255Z,15.91
2017-09-08T05:02:25.374Z,15.91
2017-09-08T05:02:51.496Z,15.8
2017-09-08T05:03:17.658Z,15.86
2017-09-08T05:03:43.771Z,15.79
2017-09-08T05:04:09.900Z,15.79
2017-09-08T05:04:36.018Z,15.79
2017-09-08T05:05:02.146Z,15.73
2017-09-08T05:05:28.273Z,15.68
2017-09-08T05:05:54.397Z,15.73
2017-09-08T05:06:20.520Z,15.73
2017-09-08T05:06:46.638Z,15.75
2017-09-08T05:07:12.765Z,15.72
2017-09-08T05:07:38.884Z,15.64
2017-09-08T05:08:05.008Z,15.58
2017-09-08T05:08:31.136Z,15.65
2017-09-08T05:08:57.253Z,15.67
2017-09-08T05:09:23.377Z,15.72
2017-09-08T05:09:49.518Z,15.65
2017-09-08T05:10:15.644Z,15.64
2017-09-08T05:10:41.761Z,15.65
2017-09-08T05:11:07.889Z,15.73
2017-09-08T05:11:34.011Z,15.67
2017-09-08T05:12:00.137Z,15.7
2017-09-08T05:12:26.260Z,15.68
2017-09-08T05:12:52.384Z,15.73
2017-09-08T05:13:18.527Z,15.73
2017-09-08T05:13:44.656Z,15.7
2017-09-08T05:14:10.772Z,15.73
2017-09-08T05:14:36.892Z,15.68
2017-09-08T05:15:03.016Z,15.75
2017-09-08T05:15:29.135Z,15.73
2017-09-08T05:15:55.254Z,15.7
2017-09-08T05:16:21.379Z,15.68
2017-09-08T05:16:47.506Z,15.7
2017-09-08T05:17:13.629Z,15.68
2017-09-08T05:17:39.749Z,15.73
2017-09-08T05:18:05.878Z,15.73
2017-09-08T05:18:31.999Z,15.7
2017-09-08T05:18:58.123Z,15.72
2017-09-08T05:19:24.251Z,15.7
2017-09-08T05:19:50.366Z,15.73
2017-09-08T05:20:16.485Z,15.72
2017-09-08T05:20:42.615Z,15.62
2017-09-08T05:21:08.731Z,15.64
2017-09-08T05:21:34.861Z,15.64
2017-09-08T05:22:00.977Z,15.64
2017-09-08T05:22:27.105Z,15.58
2017-09-08T05:22:53.225Z,15.61
2017-09-08T05:23:19.350Z,15.62
2017-09-08T05:23:45.469Z,15.65
2017-09-08T05:24:11.596Z,15.64
2017-09-08T05:24:37.725Z,15.75
2017-09-08T05:25:03.850Z,15.68
2017-09-08T05:25:29.981Z,15.76
2017-09-08T05:25:56.106Z,15.82
2017-09-08T05:26:22.235Z,15.77
2017-09-08T05:26:48.356Z,15.77
2017-09-08T05:27:14.485Z,15.7
2017-09-08T05:27:40.601Z,15.75
2017-09-08T05:28:06.720Z,15.76
2017-09-08T05:28:32.850Z,15.68
2017-09-08T05:28:58.968Z,15.68
2017-09-08T05:29:25.096Z,15.72
2017-09-08T05:29:51.220Z,15.72
2017-09-08T05:30:17.341Z,15.75
2017-09-08T05:30:43.480Z,15.72
2017-09-08T05:31:09.607Z,15.67
2017-09-08T05:31:35.731Z,15.73
2017-09-08T05:32:01.850Z,15.77
2017-09-08T05:32:27.977Z,15.75
2017-09-08T05:32:54.097Z,15.8
2017-09-08T05:33:20.229Z,15.83
2017-09-08T05:33:46.342Z,15.82
2017-09-08T05:34:12.457Z,15.83
2017-09-08T05:34:38.586Z,15.7
2017-09-08T05:35:04.710Z,15.72
2017-09-08T05:35:30.829Z,15.72
2017-09-08T05:35:56.950Z,15.68
2017-09-08T05:36:23.074Z,15.65
2017-09-08T05:36:49.195Z,15.68
2017-09-08T05:37:15.325Z,15.67
2017-09-08T05:37:41.450Z,15.62
2017-09-08T05:38:07.578Z,15.7
2017-09-08T05:38:33.715Z,15.73